Kezdőlap
METAR-TAF:

METAR-TAF

Repülőterek :

Laghouat, Algéria

földrajzi szélesség: 33-46N, földrajzi hosszúság: 002-56E, magasság: 765 m

Jelenlegi meteorológiai megfigyelések

A jelentés 1 órával és 3 perccel ezelõtt készült, 23:00 UTC
Szélcsend
Hőmérséklet 33°C
Páratartalom 19%
Légköri nyomás 1017 hPa
Látótávolság: 8000 m
Kevés felhő 3300 lábon
Szórványos felhőzet 20000 lábon

METAR: DAUL 172300Z 00000KT 8000 FEW033 SCT200 33/06 Q1017

Idő: 01:03 (00:03 UTC)

Előrejelzés

A jelentés 4 órával és 3 perccel ezelõtt készült, 20:00 UTC
Az előrejelzés 17-én 21 óra UTC és 18-én 06 óra UTC között érvényes
Dél-délnyugati szél 14 kt
Látótávolság: 8000 m
Szórványos felhőzet 3300 lábon
Valószínűség 30% :
17-én 21 óra UTC és 17-én 24 óra UTC között ideiglenes
Kevés felhő 3300 lábon, Cumulonimbus.

TAF: DAUL 172000Z 1721/1806 20014KT 8000 SCT033 PROB30 TEMPO 1721/1724 FEW033CB

Meteorológiai megfigyelések és előrejelzések több, mint 4000 repülőtéren (METAR és TAF jelentéseket).

A térképen piros és sárga pontok jelzik az elérhető meteorológiai állomásokat.

Mozgassa az egeret a pont fölött, hogy megjelenjen az állomás neve.

Azután kattintson az időjárási megfigyelések és előrejelzések megtekintéséhez.

A térkép megváltoztatása: kattintson a fekete keresztel jelölt zöld gombra ráközelítéshez, a vonallal jelölt zöld gombra távolításhoz, vagy a zöld nyilakra a szomszédos térképek eléréséhez.


METAR-TAF: